sensor_id;sensor_type;location;lat;lon;timestamp;pressure;altitude;pressure_sealevel;temperature;humidity
34454;BME280;60061;52.080;5.312;2022-07-29T00:00:44;101719.0;;;18.25;62.63
34454;BME280;60061;52.080;5.312;2022-07-29T00:02:32;101718.0;;;18.21;62.85
34454;BME280;60061;52.080;5.312;2022-07-29T00:04:19;101721.0;;;18.18;62.72
34454;BME280;60061;52.080;5.312;2022-07-29T00:06:06;101718.0;;;18.0;63.49
34454;BME280;60061;52.080;5.312;2022-07-29T00:09:41;101713.0;;;18.05;63.23
34454;BME280;60061;52.080;5.312;2022-07-29T00:11:28;101716.0;;;17.84;64.02
34454;BME280;60061;52.080;5.312;2022-07-29T00:13:15;101712.0;;;17.77;64.27
34454;BME280;60061;52.080;5.312;2022-07-29T00:15:01;101706.0;;;17.91;63.86
34454;BME280;60061;52.080;5.312;2022-07-29T00:16:48;101702.0;;;17.88;63.85
34454;BME280;60061;52.080;5.312;2022-07-29T00:18:34;101700.0;;;17.86;64.3
34454;BME280;60061;52.080;5.312;2022-07-29T00:22:07;101697.0;;;17.86;64.31
34454;BME280;60061;52.080;5.312;2022-07-29T00:23:54;101698.0;;;17.82;64.41
34454;BME280;60061;52.080;5.312;2022-07-29T00:25:40;101696.0;;;17.87;64.02
34454;BME280;60061;52.080;5.312;2022-07-29T00:27:26;101689.0;;;17.91;63.98
34454;BME280;60061;52.080;5.312;2022-07-29T00:29:12;101688.0;;;17.91;63.9
34454;BME280;60061;52.080;5.312;2022-07-29T00:32:44;101685.0;;;17.91;64.05
34454;BME280;60061;52.080;5.312;2022-07-29T00:37:33;101682.0;;;17.86;63.79
34454;BME280;60061;52.080;5.312;2022-07-29T00:41:05;101680.0;;;17.73;64.27
34454;BME280;60061;52.080;5.312;2022-07-29T00:42:52;101676.0;;;17.75;64.83
34454;BME280;60061;52.080;5.312;2022-07-29T00:44:39;101678.0;;;17.75;64.69
34454;BME280;60061;52.080;5.312;2022-07-29T00:46:26;101675.0;;;17.71;65.2
34454;BME280;60061;52.080;5.312;2022-07-29T00:48:12;101676.0;;;17.75;64.77
34454;BME280;60061;52.080;5.312;2022-07-29T00:49:59;101668.0;;;17.75;64.89
34454;BME280;60061;52.080;5.312;2022-07-29T00:53:36;101673.0;;;17.66;65.47
34454;BME280;60061;52.080;5.312;2022-07-29T00:55:22;101675.0;;;17.64;65.35
34454;BME280;60061;52.080;5.312;2022-07-29T00:57:10;101669.0;;;17.59;65.58
34454;BME280;60061;52.080;5.312;2022-07-29T00:58:58;101665.0;;;17.61;65.61
34454;BME280;60061;52.080;5.312;2022-07-29T01:00:44;101668.0;;;17.53;65.99
34454;BME280;60061;52.080;5.312;2022-07-29T01:02:31;101658.0;;;17.59;65.61
34454;BME280;60061;52.080;5.312;2022-07-29T01:06:05;101661.0;;;17.48;65.94
34454;BME280;60061;52.080;5.312;2022-07-29T01:07:53;101662.0;;;17.41;66.36
34454;BME280;60061;52.080;5.312;2022-07-29T01:09:45;101657.0;;;17.52;65.86
34454;BME280;60061;52.080;5.312;2022-07-29T01:11:32;101657.0;;;17.45;65.83
34454;BME280;60061;52.080;5.312;2022-07-29T01:13:20;101656.0;;;17.43;65.87
34454;BME280;60061;52.080;5.312;2022-07-29T01:15:08;101658.0;;;17.43;66.59
34454;BME280;60061;52.080;5.312;2022-07-29T01:19:06;101652.0;;;17.39;66.3
34454;BME280;60061;52.080;5.312;2022-07-29T01:21:24;101652.0;;;17.31;66.66
34454;BME280;60061;52.080;5.312;2022-07-29T01:24:30;101655.0;;;17.28;66.77
34454;BME280;60061;52.080;5.312;2022-07-29T01:26:57;101657.0;;;17.27;66.94
34454;BME280;60061;52.080;5.312;2022-07-29T01:28:52;101650.0;;;17.29;66.69
34454;BME280;60061;52.080;5.312;2022-07-29T01:30:47;101651.0;;;17.25;66.98
34454;BME280;60061;52.080;5.312;2022-07-29T01:32:37;101655.0;;;17.34;66.09
34454;BME280;60061;52.080;5.312;2022-07-29T01:34:29;101657.0;;;17.36;66.48
34454;BME280;60061;52.080;5.312;2022-07-29T01:36:23;101657.0;;;17.23;67.36
34454;BME280;60061;52.080;5.312;2022-07-29T01:38:17;101655.0;;;17.2;67.11
34454;BME280;60061;52.080;5.312;2022-07-29T01:40:11;101655.0;;;17.16;67.25
34454;BME280;60061;52.080;5.312;2022-07-29T01:44:10;101659.0;;;17.16;67.34
34454;BME280;60061;52.080;5.312;2022-07-29T01:46:04;101656.0;;;17.16;66.73
34454;BME280;60061;52.080;5.312;2022-07-29T01:47:57;101653.0;;;17.18;67.08
34454;BME280;60061;52.080;5.312;2022-07-29T01:49:51;101655.0;;;17.12;67.41
34454;BME280;60061;52.080;5.312;2022-07-29T01:51:45;101663.0;;;17.16;67.35
34454;BME280;60061;52.080;5.312;2022-07-29T01:53:38;101663.0;;;17.22;66.6
34454;BME280;60061;52.080;5.312;2022-07-29T01:55:40;101661.0;;;17.2;66.94
34454;BME280;60061;52.080;5.312;2022-07-29T01:57:31;101663.0;;;17.14;67.37
34454;BME280;60061;52.080;5.312;2022-07-29T01:59:20;101659.0;;;17.18;67.25
34454;BME280;60061;52.080;5.312;2022-07-29T02:01:08;101663.0;;;17.12;67.45
34454;BME280;60061;52.080;5.312;2022-07-29T02:04:49;101658.0;;;17.14;67.2
34454;BME280;60061;52.080;5.312;2022-07-29T02:06:38;101657.0;;;17.16;66.73
34454;BME280;60061;52.080;5.312;2022-07-29T02:08:28;101657.0;;;17.16;67.41
34454;BME280;60061;52.080;5.312;2022-07-29T02:10:18;101655.0;;;17.2;67.0
34454;BME280;60061;52.080;5.312;2022-07-29T02:12:09;101649.0;;;17.21;66.75
34454;BME280;60061;52.080;5.312;2022-07-29T02:14:00;101651.0;;;17.16;67.3
34454;BME280;60061;52.080;5.312;2022-07-29T02:15:48;101650.0;;;17.23;66.91
34454;BME280;60061;52.080;5.312;2022-07-29T02:19:31;101648.0;;;17.16;67.05
34454;BME280;60061;52.080;5.312;2022-07-29T02:21:22;101649.0;;;17.2;66.64
34454;BME280;60061;52.080;5.312;2022-07-29T02:23:11;101652.0;;;17.27;66.62
34454;BME280;60061;52.080;5.312;2022-07-29T02:24:59;101658.0;;;17.16;67.25
34454;BME280;60061;52.080;5.312;2022-07-29T02:26:49;101658.0;;;17.14;66.91
34454;BME280;60061;52.080;5.312;2022-07-29T02:28:36;101660.0;;;17.09;67.3
34454;BME280;60061;52.080;5.312;2022-07-29T02:30:24;101659.0;;;17.11;67.22
34454;BME280;60061;52.080;5.312;2022-07-29T02:34:03;101653.0;;;17.09;67.27
34454;BME280;60061;52.080;5.312;2022-07-29T02:35:52;101657.0;;;17.05;67.72
34454;BME280;60061;52.080;5.312;2022-07-29T02:37:41;101653.0;;;17.07;67.22
34454;BME280;60061;52.080;5.312;2022-07-29T02:39:29;101647.0;;;17.16;66.95
34454;BME280;60061;52.080;5.312;2022-07-29T02:41:20;101647.0;;;17.11;67.67
34454;BME280;60061;52.080;5.312;2022-07-29T02:43:09;101645.0;;;17.0;67.72
34454;BME280;60061;52.080;5.312;2022-07-29T02:44:57;101642.0;;;17.13;67.45
34454;BME280;60061;52.080;5.312;2022-07-29T02:48:39;101640.0;;;17.07;67.77
34454;BME280;60061;52.080;5.312;2022-07-29T02:50:32;101635.0;;;17.16;67.25
34454;BME280;60061;52.080;5.312;2022-07-29T02:52:24;101635.0;;;17.11;67.11
34454;BME280;60061;52.080;5.312;2022-07-29T02:54:20;101635.0;;;17.11;67.33
34454;BME280;60061;52.080;5.312;2022-07-29T02:56:12;101637.0;;;17.03;67.8
34454;BME280;60061;52.080;5.312;2022-07-29T02:58:03;101640.0;;;17.06;67.33
34454;BME280;60061;52.080;5.312;2022-07-29T02:59:53;101642.0;;;17.04;67.31
34454;BME280;60061;52.080;5.312;2022-07-29T03:01:44;101639.0;;;17.02;67.8
34454;BME280;60061;52.080;5.312;2022-07-29T03:05:22;101638.0;;;16.97;67.72
34454;BME280;60061;52.080;5.312;2022-07-29T03:07:11;101639.0;;;16.98;67.67
34454;BME280;60061;52.080;5.312;2022-07-29T03:08:59;101639.0;;;17.11;67.19
34454;BME280;60061;52.080;5.312;2022-07-29T03:10:47;101639.0;;;17.03;67.33
34454;BME280;60061;52.080;5.312;2022-07-29T03:12:35;101644.0;;;16.96;67.6
34454;BME280;60061;52.080;5.312;2022-07-29T03:14:23;101640.0;;;16.96;67.56
34454;BME280;60061;52.080;5.312;2022-07-29T03:17:59;101639.0;;;16.91;68.02
34454;BME280;60061;52.080;5.312;2022-07-29T03:19:46;101634.0;;;16.84;68.27
34454;BME280;60061;52.080;5.312;2022-07-29T03:21:33;101636.0;;;16.87;68.06
34454;BME280;60061;52.080;5.312;2022-07-29T03:23:22;101630.0;;;16.89;67.63
34454;BME280;60061;52.080;5.312;2022-07-29T03:25:11;101631.0;;;16.93;67.69
34454;BME280;60061;52.080;5.312;2022-07-29T03:27:00;101625.0;;;16.97;67.55
34454;BME280;60061;52.080;5.312;2022-07-29T03:30:33;101624.0;;;17.02;67.2
34454;BME280;60061;52.080;5.312;2022-07-29T03:32:20;101617.0;;;17.02;67.88
34454;BME280;60061;52.080;5.312;2022-07-29T03:34:06;101612.0;;;16.95;67.49
34454;BME280;60061;52.080;5.312;2022-07-29T03:35:52;101619.0;;;16.91;67.78
34454;BME280;60061;52.080;5.312;2022-07-29T03:37:38;101618.0;;;16.91;67.8
34454;BME280;60061;52.080;5.312;2022-07-29T03:39:27;101612.0;;;16.88;67.75
34454;BME280;60061;52.080;5.312;2022-07-29T03:43:07;101603.0;;;17.0;67.33
34454;BME280;60061;52.080;5.312;2022-07-29T03:44:57;101610.0;;;16.93;67.7
34454;BME280;60061;52.080;5.312;2022-07-29T03:46:45;101613.0;;;16.86;67.83
34454;BME280;60061;52.080;5.312;2022-07-29T03:48:37;101606.0;;;16.84;67.86
34454;BME280;60061;52.080;5.312;2022-07-29T03:50:26;101614.0;;;16.81;67.67
34454;BME280;60061;52.080;5.312;2022-07-29T03:52:13;101615.0;;;16.82;68.1
34454;BME280;60061;52.080;5.312;2022-07-29T03:54:00;101615.0;;;16.87;67.74
34454;BME280;60061;52.080;5.312;2022-07-29T03:57:40;101610.0;;;16.97;67.22
34454;BME280;60061;52.080;5.312;2022-07-29T03:59:30;101610.0;;;17.0;67.24
34454;BME280;60061;52.080;5.312;2022-07-29T04:01:19;101610.0;;;17.05;67.02
34454;BME280;60061;52.080;5.312;2022-07-29T04:03:08;101607.0;;;16.97;67.28
34454;BME280;60061;52.080;5.312;2022-07-29T04:04:55;101607.0;;;17.0;67.31
34454;BME280;60061;52.080;5.312;2022-07-29T04:06:44;101607.0;;;16.98;67.27
34454;BME280;60061;52.080;5.312;2022-07-29T04:10:19;101606.0;;;16.93;67.56
34454;BME280;60061;52.080;5.312;2022-07-29T04:12:06;101605.0;;;16.87;67.91
34454;BME280;60061;52.080;5.312;2022-07-29T04:13:52;101607.0;;;16.82;67.8
34454;BME280;60061;52.080;5.312;2022-07-29T04:15:39;101607.0;;;16.84;67.72
34454;BME280;60061;52.080;5.312;2022-07-29T04:17:25;101609.0;;;16.82;67.69
34454;BME280;60061;52.080;5.312;2022-07-29T04:19:11;101611.0;;;16.79;67.78
34454;BME280;60061;52.080;5.312;2022-07-29T04:22:47;101606.0;;;16.79;67.84
34454;BME280;60061;52.080;5.312;2022-07-29T04:24:34;101600.0;;;16.9;67.38
34454;BME280;60061;52.080;5.312;2022-07-29T04:26:20;101596.0;;;16.86;67.99
34454;BME280;60061;52.080;5.312;2022-07-29T04:28:09;101593.0;;;16.9;67.19
34454;BME280;60061;52.080;5.312;2022-07-29T04:29:56;101594.0;;;16.82;67.67
34454;BME280;60061;52.080;5.312;2022-07-29T04:31:42;101601.0;;;16.8;67.67
34454;BME280;60061;52.080;5.312;2022-07-29T04:35:15;101602.0;;;16.78;67.97
34454;BME280;60061;52.080;5.312;2022-07-29T04:37:02;101600.0;;;16.79;67.88
34454;BME280;60061;52.080;5.312;2022-07-29T04:38:49;101607.0;;;16.77;67.78
34454;BME280;60061;52.080;5.312;2022-07-29T04:40:36;101605.0;;;16.9;67.33
34454;BME280;60061;52.080;5.312;2022-07-29T04:42:22;101607.0;;;16.95;67.47
34454;BME280;60061;52.080;5.312;2022-07-29T04:45:55;101612.0;;;17.0;67.28
34454;BME280;60061;52.080;5.312;2022-07-29T04:47:41;101612.0;;;16.95;67.39
34454;BME280;60061;52.080;5.312;2022-07-29T04:49:28;101614.0;;;16.97;67.09
34454;BME280;60061;52.080;5.312;2022-07-29T04:51:14;101614.0;;;16.93;67.64
34454;BME280;60061;52.080;5.312;2022-07-29T04:53:02;101614.0;;;16.88;67.45
34454;BME280;60061;52.080;5.312;2022-07-29T04:54:48;101610.0;;;16.93;67.47
34454;BME280;60061;52.080;5.312;2022-07-29T04:58:23;101610.0;;;16.93;67.16
34454;BME280;60061;52.080;5.312;2022-07-29T05:00:10;101606.0;;;16.91;67.47
34454;BME280;60061;52.080;5.312;2022-07-29T05:01:57;101607.0;;;17.02;66.91
34454;BME280;60061;52.080;5.312;2022-07-29T05:03:44;101609.0;;;17.03;66.85
34454;BME280;60061;52.080;5.312;2022-07-29T05:05:30;101614.0;;;17.06;67.19
34454;BME280;60061;52.080;5.312;2022-07-29T05:07:17;101614.0;;;17.04;66.91
34454;BME280;60061;52.080;5.312;2022-07-29T05:10:51;101614.0;;;17.04;67.11
34454;BME280;60061;52.080;5.312;2022-07-29T05:12:37;101614.0;;;16.97;67.34
34454;BME280;60061;52.080;5.312;2022-07-29T05:14:23;101613.0;;;17.02;67.14
34454;BME280;60061;52.080;5.312;2022-07-29T05:16:10;101608.0;;;17.07;67.47
34454;BME280;60061;52.080;5.312;2022-07-29T05:17:56;101609.0;;;17.06;67.55
34454;BME280;60061;52.080;5.312;2022-07-29T05:21:30;101609.0;;;17.07;67.08
34454;BME280;60061;52.080;5.312;2022-07-29T05:23:16;101609.0;;;17.18;66.83
34454;BME280;60061;52.080;5.312;2022-07-29T05:25:04;101608.0;;;17.32;66.19
34454;BME280;60061;52.080;5.312;2022-07-29T05:26:50;101610.0;;;17.28;66.59
34454;BME280;60061;52.080;5.312;2022-07-29T05:28:37;101619.0;;;17.18;66.94
34454;BME280;60061;52.080;5.312;2022-07-29T05:30:23;101624.0;;;17.29;67.27
34454;BME280;60061;52.080;5.312;2022-07-29T05:33:58;101625.0;;;17.31;66.58
34454;BME280;60061;52.080;5.312;2022-07-29T05:35:44;101623.0;;;17.37;66.48
34454;BME280;60061;52.080;5.312;2022-07-29T05:37:30;101621.0;;;17.43;67.08
34454;BME280;60061;52.080;5.312;2022-07-29T05:39:17;101618.0;;;17.47;66.41
34454;BME280;60061;52.080;5.312;2022-07-29T05:41:04;101625.0;;;17.52;67.19
34454;BME280;60061;52.080;5.312;2022-07-29T05:42:51;101623.0;;;17.47;66.36
34454;BME280;60061;52.080;5.312;2022-07-29T05:46:25;101627.0;;;17.77;65.45
34454;BME280;60061;52.080;5.312;2022-07-29T05:48:12;101630.0;;;18.0;65.19
34454;BME280;60061;52.080;5.312;2022-07-29T05:49:58;101633.0;;;18.27;64.08
34454;BME280;60061;52.080;5.312;2022-07-29T05:51:44;101635.0;;;18.3;63.45
34454;BME280;60061;52.080;5.312;2022-07-29T05:53:31;101634.0;;;18.34;64.28
34454;BME280;60061;52.080;5.312;2022-07-29T05:57:05;101626.0;;;18.23;64.27
34454;BME280;60061;52.080;5.312;2022-07-29T05:58:52;101630.0;;;18.16;64.17
34454;BME280;60061;52.080;5.312;2022-07-29T06:00:39;101632.0;;;18.27;63.67
34454;BME280;60061;52.080;5.312;2022-07-29T06:02:26;101633.0;;;18.25;64.22
34454;BME280;60061;52.080;5.312;2022-07-29T06:04:13;101627.0;;;18.04;64.38
34454;BME280;60061;52.080;5.312;2022-07-29T06:05:59;101631.0;;;17.96;64.72
34454;BME280;60061;52.080;5.312;2022-07-29T06:09:32;101631.0;;;18.02;64.64
34454;BME280;60061;52.080;5.312;2022-07-29T06:11:19;101630.0;;;18.05;64.94
34454;BME280;60061;52.080;5.312;2022-07-29T06:13:05;101634.0;;;18.0;64.8
34454;BME280;60061;52.080;5.312;2022-07-29T06:14:51;101633.0;;;17.91;65.14
34454;BME280;60061;52.080;5.312;2022-07-29T06:16:37;101636.0;;;17.95;65.03
34454;BME280;60061;52.080;5.312;2022-07-29T06:18:24;101641.0;;;18.02;64.94
34454;BME280;60061;52.080;5.312;2022-07-29T06:21:57;101637.0;;;17.98;65.05
34454;BME280;60061;52.080;5.312;2022-07-29T06:23:45;101641.0;;;17.95;65.17
34454;BME280;60061;52.080;5.312;2022-07-29T06:25:34;101647.0;;;18.0;65.83
34454;BME280;60061;52.080;5.312;2022-07-29T06:27:20;101653.0;;;18.04;65.24
34454;BME280;60061;52.080;5.312;2022-07-29T06:29:07;101657.0;;;18.03;65.61
34454;BME280;60061;52.080;5.312;2022-07-29T06:30:55;101661.0;;;18.11;65.03
34454;BME280;60061;52.080;5.312;2022-07-29T06:36:14;101658.0;;;17.95;65.92
34454;BME280;60061;52.080;5.312;2022-07-29T06:38:01;101662.0;;;18.02;65.61
34454;BME280;60061;52.080;5.312;2022-07-29T06:41:00;101662.0;;;18.09;65.36
34454;BME280;60061;52.080;5.312;2022-07-29T06:42:46;101666.0;;;18.0;66.27
34454;BME280;60061;52.080;5.312;2022-07-29T06:44:33;101668.0;;;18.13;65.69
34454;BME280;60061;52.080;5.312;2022-07-29T06:46:22;101671.0;;;18.11;65.67
34454;BME280;60061;52.080;5.312;2022-07-29T06:48:08;101680.0;;;18.11;65.87
34454;BME280;60061;52.080;5.312;2022-07-29T06:49:55;101681.0;;;18.16;65.08
34454;BME280;60061;52.080;5.312;2022-07-29T06:53:28;101682.0;;;18.13;64.92
34454;BME280;60061;52.080;5.312;2022-07-29T06:55:16;101678.0;;;17.93;65.45
34454;BME280;60061;52.080;5.312;2022-07-29T06:57:02;101676.0;;;18.12;64.98
34454;BME280;60061;52.080;5.312;2022-07-29T06:58:48;101681.0;;;18.22;65.63
34454;BME280;60061;52.080;5.312;2022-07-29T07:00:35;101678.0;;;18.27;65.28
34454;BME280;60061;52.080;5.312;2022-07-29T07:02:21;101680.0;;;18.41;64.91
34454;BME280;60061;52.080;5.312;2022-07-29T07:05:56;101682.0;;;18.56;64.22
34454;BME280;60061;52.080;5.312;2022-07-29T07:07:43;101686.0;;;18.61;65.23
34454;BME280;60061;52.080;5.312;2022-07-29T07:09:29;101684.0;;;18.66;65.39
34454;BME280;60061;52.080;5.312;2022-07-29T07:11:15;101681.0;;;18.77;65.36
34454;BME280;60061;52.080;5.312;2022-07-29T07:13:01;101684.0;;;18.95;64.88
34454;BME280;60061;52.080;5.312;2022-07-29T07:14:49;101680.0;;;19.09;64.13
34454;BME280;60061;52.080;5.312;2022-07-29T07:18:22;101678.0;;;19.16;63.47
34454;BME280;60061;52.080;5.312;2022-07-29T07:20:08;101677.0;;;19.28;63.52
34454;BME280;60061;52.080;5.312;2022-07-29T07:21:55;101673.0;;;19.5;62.04
34454;BME280;60061;52.080;5.312;2022-07-29T07:23:42;101672.0;;;19.55;61.97
34454;BME280;60061;52.080;5.312;2022-07-29T07:25:28;101667.0;;;19.75;61.09
34454;BME280;60061;52.080;5.312;2022-07-29T07:29:01;101666.0;;;19.84;60.87
34454;BME280;60061;52.080;5.312;2022-07-29T07:30:47;101668.0;;;19.88;60.96
34454;BME280;60061;52.080;5.312;2022-07-29T07:32:34;101667.0;;;19.97;60.24
34454;BME280;60061;52.080;5.312;2022-07-29T07:34:21;101666.0;;;20.0;59.83
34454;BME280;60061;52.080;5.312;2022-07-29T07:36:07;101666.0;;;20.18;60.74
34454;BME280;60061;52.080;5.312;2022-07-29T07:37:55;101663.0;;;20.27;59.25
34454;BME280;60061;52.080;5.312;2022-07-29T07:41:28;101661.0;;;20.36;59.21
34454;BME280;60061;52.080;5.312;2022-07-29T07:43:14;101664.0;;;20.37;60.05
34454;BME280;60061;52.080;5.312;2022-07-29T07:45:00;101664.0;;;20.45;59.86
34454;BME280;60061;52.080;5.312;2022-07-29T07:46:46;101663.0;;;20.43;59.35
34454;BME280;60061;52.080;5.312;2022-07-29T07:48:34;101664.0;;;20.5;59.5
34454;BME280;60061;52.080;5.312;2022-07-29T07:52:08;101668.0;;;20.57;58.79
34454;BME280;60061;52.080;5.312;2022-07-29T07:53:54;101667.0;;;20.46;58.69
34454;BME280;60061;52.080;5.312;2022-07-29T07:55:42;101664.0;;;20.45;58.87
34454;BME280;60061;52.080;5.312;2022-07-29T07:57:29;101664.0;;;20.54;59.54
34454;BME280;60061;52.080;5.312;2022-07-29T07:59:15;101660.0;;;20.54;57.78
34454;BME280;60061;52.080;5.312;2022-07-29T08:01:03;101656.0;;;20.66;57.78
34454;BME280;60061;52.080;5.312;2022-07-29T08:04:37;101652.0;;;20.58;58.05
34454;BME280;60061;52.080;5.312;2022-07-29T08:06:25;101646.0;;;20.68;59.3
34454;BME280;60061;52.080;5.312;2022-07-29T08:08:11;101642.0;;;20.67;58.12
34454;BME280;60061;52.080;5.312;2022-07-29T08:09:57;101645.0;;;20.75;57.93
34454;BME280;60061;52.080;5.312;2022-07-29T08:11:43;101647.0;;;20.7;58.56
34454;BME280;60061;52.080;5.312;2022-07-29T08:13:30;101641.0;;;20.86;57.82
34454;BME280;60061;52.080;5.312;2022-07-29T08:17:03;101644.0;;;20.93;58.34
34454;BME280;60061;52.080;5.312;2022-07-29T08:18:49;101647.0;;;21.02;57.9
34454;BME280;60061;52.080;5.312;2022-07-29T08:20:36;101653.0;;;21.16;57.11
34454;BME280;60061;52.080;5.312;2022-07-29T08:22:23;101656.0;;;21.23;58.66
34454;BME280;60061;52.080;5.312;2022-07-29T08:25:13;101659.0;;;21.37;57.07
34454;BME280;60061;52.080;5.312;2022-07-29T08:26:59;101661.0;;;21.56;56.77
34454;BME280;60061;52.080;5.312;2022-07-29T08:28:46;101655.0;;;21.81;56.0
34454;BME280;60061;52.080;5.312;2022-07-29T08:30:34;101658.0;;;21.65;55.27
34454;BME280;60061;52.080;5.312;2022-07-29T08:32:20;101655.0;;;21.7;55.99
34454;BME280;60061;52.080;5.312;2022-07-29T08:35:55;101658.0;;;21.55;55.91
34454;BME280;60061;52.080;5.312;2022-07-29T08:37:42;101657.0;;;21.63;56.24
34454;BME280;60061;52.080;5.312;2022-07-29T08:39:28;101656.0;;;21.73;56.36
34454;BME280;60061;52.080;5.312;2022-07-29T08:41:15;101662.0;;;21.78;56.47
34454;BME280;60061;52.080;5.312;2022-07-29T08:43:05;101663.0;;;21.78;57.01
34454;BME280;60061;52.080;5.312;2022-07-29T08:44:54;101663.0;;;21.94;55.64
34454;BME280;60061;52.080;5.312;2022-07-29T08:48:29;101661.0;;;21.9;54.78
34454;BME280;60061;52.080;5.312;2022-07-29T08:50:15;101661.0;;;21.62;55.69
34454;BME280;60061;52.080;5.312;2022-07-29T08:52:02;101663.0;;;21.79;55.24
34454;BME280;60061;52.080;5.312;2022-07-29T08:53:49;101668.0;;;21.86;54.06
34454;BME280;60061;52.080;5.312;2022-07-29T08:55:39;101670.0;;;22.26;53.99
34454;BME280;60061;52.080;5.312;2022-07-29T08:57:26;101672.0;;;22.49;53.36
34454;BME280;60061;52.080;5.312;2022-07-29T09:01:02;101665.0;;;22.52;51.45
34454;BME280;60061;52.080;5.312;2022-07-29T09:02:51;101661.0;;;22.66;52.53
34454;BME280;60061;52.080;5.312;2022-07-29T09:04:42;101665.0;;;22.94;51.5
34454;BME280;60061;52.080;5.312;2022-07-29T09:06:34;101658.0;;;22.75;51.76
34454;BME280;60061;52.080;5.312;2022-07-29T09:08:23;101663.0;;;22.72;51.79
34454;BME280;60061;52.080;5.312;2022-07-29T09:10:10;101662.0;;;23.0;50.77
34454;BME280;60061;52.080;5.312;2022-07-29T09:13:46;101667.0;;;23.3;49.06
34454;BME280;60061;52.080;5.312;2022-07-29T09:15:33;101663.0;;;23.34;49.77
34454;BME280;60061;52.080;5.312;2022-07-29T09:17:39;101665.0;;;23.44;49.79
34454;BME280;60061;52.080;5.312;2022-07-29T09:19:27;101668.0;;;23.66;48.72
34454;BME280;60061;52.080;5.312;2022-07-29T09:22:28;101663.0;;;23.82;48.81
34454;BME280;60061;52.080;5.312;2022-07-29T09:24:15;101668.0;;;23.78;48.35
34454;BME280;60061;52.080;5.312;2022-07-29T09:26:05;101660.0;;;23.76;48.54
34454;BME280;60061;52.080;5.312;2022-07-29T09:27:51;101655.0;;;23.82;48.99
34454;BME280;60061;52.080;5.312;2022-07-29T09:29:39;101657.0;;;23.68;48.71
34454;BME280;60061;52.080;5.312;2022-07-29T09:31:32;101652.0;;;23.76;49.14
34454;BME280;60061;52.080;5.312;2022-07-29T09:33:20;101652.0;;;23.96;48.67
34454;BME280;60061;52.080;5.312;2022-07-29T09:35:18;101651.0;;;23.93;48.53
34454;BME280;60061;52.080;5.312;2022-07-29T09:37:05;101649.0;;;24.08;48.81
34454;BME280;60061;52.080;5.312;2022-07-29T09:40:55;101646.0;;;24.29;48.71
34454;BME280;60061;52.080;5.312;2022-07-29T09:42:43;101640.0;;;24.31;48.23
34454;BME280;60061;52.080;5.312;2022-07-29T09:44:47;101638.0;;;24.39;48.1
34454;BME280;60061;52.080;5.312;2022-07-29T09:46:34;101646.0;;;24.42;47.96
34454;BME280;60061;52.080;5.312;2022-07-29T09:48:23;101651.0;;;24.52;46.96
34454;BME280;60061;52.080;5.312;2022-07-29T09:50:11;101647.0;;;24.74;47.0
34454;BME280;60061;52.080;5.312;2022-07-29T09:52:00;101648.0;;;24.88;46.68
34454;BME280;60061;52.080;5.312;2022-07-29T09:55:52;101649.0;;;24.9;46.51
34454;BME280;60061;52.080;5.312;2022-07-29T09:57:39;101653.0;;;25.01;46.03
34454;BME280;60061;52.080;5.312;2022-07-29T09:59:26;101656.0;;;24.98;44.39
34454;BME280;60061;52.080;5.312;2022-07-29T10:01:12;101655.0;;;25.11;43.99
34454;BME280;60061;52.080;5.312;2022-07-29T10:03:01;101650.0;;;25.11;44.94
34454;BME280;60061;52.080;5.312;2022-07-29T10:04:48;101645.0;;;25.24;45.23
34454;BME280;60061;52.080;5.312;2022-07-29T10:06:35;101646.0;;;25.43;44.39
34454;BME280;60061;52.080;5.312;2022-07-29T10:08:41;101647.0;;;25.41;44.73
34454;BME280;60061;52.080;5.312;2022-07-29T10:12:18;101647.0;;;25.54;44.03
34454;BME280;60061;52.080;5.312;2022-07-29T10:14:05;101646.0;;;25.61;44.44
34454;BME280;60061;52.080;5.312;2022-07-29T10:15:52;101644.0;;;25.8;43.5
34454;BME280;60061;52.080;5.312;2022-07-29T10:17:39;101647.0;;;25.9;44.63
34454;BME280;60061;52.080;5.312;2022-07-29T10:19:28;101644.0;;;25.84;43.7
34454;BME280;60061;52.080;5.312;2022-07-29T10:21:15;101643.0;;;26.08;43.38
34454;BME280;60061;52.080;5.312;2022-07-29T10:24:51;101649.0;;;26.03;43.88
34454;BME280;60061;52.080;5.312;2022-07-29T10:26:41;101643.0;;;25.71;44.27
34454;BME280;60061;52.080;5.312;2022-07-29T10:28:29;101645.0;;;25.9;44.57
34454;BME280;60061;52.080;5.312;2022-07-29T10:30:17;101643.0;;;25.83;44.61
34454;BME280;60061;52.080;5.312;2022-07-29T10:32:16;101645.0;;;25.67;44.53
34454;BME280;60061;52.080;5.312;2022-07-29T10:34:12;101640.0;;;25.74;44.0
34454;BME280;60061;52.080;5.312;2022-07-29T10:36:15;101647.0;;;25.96;43.63
34454;BME280;60061;52.080;5.312;2022-07-29T10:38:52;101642.0;;;25.88;43.8
34454;BME280;60061;52.080;5.312;2022-07-29T10:41:56;101639.0;;;25.96;43.62
34454;BME280;60061;52.080;5.312;2022-07-29T10:43:59;101640.0;;;25.98;43.51
34454;BME280;60061;52.080;5.312;2022-07-29T10:45:48;101635.0;;;26.04;43.78
34454;BME280;60061;52.080;5.312;2022-07-29T10:47:36;101640.0;;;25.84;43.32
34454;BME280;60061;52.080;5.312;2022-07-29T10:49:23;101639.0;;;25.98;43.71
34454;BME280;60061;52.080;5.312;2022-07-29T10:51:11;101641.0;;;26.12;43.7
34454;BME280;60061;52.080;5.312;2022-07-29T10:52:58;101639.0;;;26.04;43.78
34454;BME280;60061;52.080;5.312;2022-07-29T10:54:48;101637.0;;;25.93;43.76
34454;BME280;60061;52.080;5.312;2022-07-29T10:56:36;101639.0;;;25.97;43.46
34454;BME280;60061;52.080;5.312;2022-07-29T11:00:29;101643.0;;;26.1;43.05
34454;BME280;60061;52.080;5.312;2022-07-29T11:02:50;101639.0;;;25.86;43.5
34454;BME280;60061;52.080;5.312;2022-07-29T11:05:09;101639.0;;;25.84;44.07
34454;BME280;60061;52.080;5.312;2022-07-29T11:07:09;101647.0;;;25.84;43.05
34454;BME280;60061;52.080;5.312;2022-07-29T11:09:28;101646.0;;;26.07;44.83
34454;BME280;60061;52.080;5.312;2022-07-29T11:13:55;101641.0;;;26.25;43.24
34454;BME280;60061;52.080;5.312;2022-07-29T11:15:57;101644.0;;;26.18;42.93
34454;BME280;60061;52.080;5.312;2022-07-29T11:18:04;101642.0;;;26.26;43.9